sensor_id;sensor_type;location;lat;lon;timestamp;P1;durP1;ratioP1;P2;durP2;ratioP2
10248;SDS011;5169;50.560;9.714;2023-02-28T00:01:29;2.10;;;1.90;;
10248;SDS011;5169;50.560;9.714;2023-02-28T00:04:01;1.90;;;1.70;;
10248;SDS011;5169;50.560;9.714;2023-02-28T00:06:27;2.23;;;2.00;;
10248;SDS011;5169;50.560;9.714;2023-02-28T00:08:53;2.57;;;1.80;;
10248;SDS011;5169;50.560;9.714;2023-02-28T00:11:21;2.10;;;1.70;;
10248;SDS011;5169;50.560;9.714;2023-02-28T00:13:47;2.10;;;1.90;;
10248;SDS011;5169;50.560;9.714;2023-02-28T00:16:17;1.60;;;1.50;;
10248;SDS011;5169;50.560;9.714;2023-02-28T00:18:45;1.90;;;1.70;;
10248;SDS011;5169;50.560;9.714;2023-02-28T00:21:16;3.37;;;1.90;;
10248;SDS011;5169;50.560;9.714;2023-02-28T00:23:43;2.03;;;1.70;;
10248;SDS011;5169;50.560;9.714;2023-02-28T00:26:17;1.63;;;1.53;;
10248;SDS011;5169;50.560;9.714;2023-02-28T00:28:43;2.00;;;1.67;;
10248;SDS011;5169;50.560;9.714;2023-02-28T00:31:09;2.53;;;1.90;;
10248;SDS011;5169;50.560;9.714;2023-02-28T00:33:34;1.60;;;1.50;;
10248;SDS011;5169;50.560;9.714;2023-02-28T00:36:07;1.60;;;1.50;;
10248;SDS011;5169;50.560;9.714;2023-02-28T00:38:36;2.53;;;1.93;;
10248;SDS011;5169;50.560;9.714;2023-02-28T00:41:05;2.07;;;1.87;;
10248;SDS011;5169;50.560;9.714;2023-02-28T00:43:34;2.37;;;1.63;;
10248;SDS011;5169;50.560;9.714;2023-02-28T00:46:07;2.80;;;2.20;;
10248;SDS011;5169;50.560;9.714;2023-02-28T00:48:33;2.07;;;1.83;;
10248;SDS011;5169;50.560;9.714;2023-02-28T00:50:58;2.90;;;1.80;;
10248;SDS011;5169;50.560;9.714;2023-02-28T00:53:30;1.93;;;1.70;;
10248;SDS011;5169;50.560;9.714;2023-02-28T00:55:59;2.20;;;1.83;;
10248;SDS011;5169;50.560;9.714;2023-02-28T00:58:31;1.77;;;1.60;;
10248;SDS011;5169;50.560;9.714;2023-02-28T01:01:04;1.87;;;1.77;;
10248;SDS011;5169;50.560;9.714;2023-02-28T01:03:32;1.93;;;1.57;;
10248;SDS011;5169;50.560;9.714;2023-02-28T01:05:58;2.50;;;1.57;;
10248;SDS011;5169;50.560;9.714;2023-02-28T01:08:27;3.90;;;1.70;;
10248;SDS011;5169;50.560;9.714;2023-02-28T01:10:55;1.50;;;1.40;;
10248;SDS011;5169;50.560;9.714;2023-02-28T01:13:34;2.67;;;1.80;;
10248;SDS011;5169;50.560;9.714;2023-02-28T01:16:02;2.27;;;1.80;;
10248;SDS011;5169;50.560;9.714;2023-02-28T01:18:34;1.60;;;1.50;;
10248;SDS011;5169;50.560;9.714;2023-02-28T01:21:04;3.73;;;1.70;;
10248;SDS011;5169;50.560;9.714;2023-02-28T01:23:38;2.20;;;2.00;;
10248;SDS011;5169;50.560;9.714;2023-02-28T01:26:07;2.30;;;1.80;;
10248;SDS011;5169;50.560;9.714;2023-02-28T01:28:50;2.10;;;1.90;;
10248;SDS011;5169;50.560;9.714;2023-02-28T01:31:17;1.90;;;1.73;;
10248;SDS011;5169;50.560;9.714;2023-02-28T01:33:43;1.97;;;1.83;;
10248;SDS011;5169;50.560;9.714;2023-02-28T01:36:23;2.80;;;2.23;;
10248;SDS011;5169;50.560;9.714;2023-02-28T01:38:52;2.53;;;1.90;;
10248;SDS011;5169;50.560;9.714;2023-02-28T01:41:25;2.43;;;1.87;;
10248;SDS011;5169;50.560;9.714;2023-02-28T01:43:57;2.37;;;1.80;;
10248;SDS011;5169;50.560;9.714;2023-02-28T01:46:24;2.23;;;2.03;;
10248;SDS011;5169;50.560;9.714;2023-02-28T01:48:51;2.10;;;1.90;;
10248;SDS011;5169;50.560;9.714;2023-02-28T01:51:40;2.80;;;1.80;;
10248;SDS011;5169;50.560;9.714;2023-02-28T01:54:29;2.27;;;1.83;;
10248;SDS011;5169;50.560;9.714;2023-02-28T01:57:04;1.70;;;1.60;;
10248;SDS011;5169;50.560;9.714;2023-02-28T02:02:16;2.23;;;1.73;;
10248;SDS011;5169;50.560;9.714;2023-02-28T02:07:48;1.70;;;1.40;;
10248;SDS011;5169;50.560;9.714;2023-02-28T02:10:18;2.03;;;1.70;;
10248;SDS011;5169;50.560;9.714;2023-02-28T02:13:08;3.37;;;1.80;;
10248;SDS011;5169;50.560;9.714;2023-02-28T02:18:55;1.70;;;1.60;;
10248;SDS011;5169;50.560;9.714;2023-02-28T02:24:58;3.23;;;1.60;;
10248;SDS011;5169;50.560;9.714;2023-02-28T02:41:14;2.50;;;1.30;;
10248;SDS011;5169;50.560;9.714;2023-02-28T02:46:38;2.80;;;1.40;;
10248;SDS011;5169;50.560;9.714;2023-02-28T02:49:14;1.60;;;1.50;;
10248;SDS011;5169;50.560;9.714;2023-02-28T02:51:49;1.60;;;1.50;;
10248;SDS011;5169;50.560;9.714;2023-02-28T02:56:50;1.70;;;1.57;;
10248;SDS011;5169;50.560;9.714;2023-02-28T02:59:18;1.63;;;1.53;;
10248;SDS011;5169;50.560;9.714;2023-02-28T03:01:53;1.63;;;1.43;;
10248;SDS011;5169;50.560;9.714;2023-02-28T03:04:25;1.67;;;1.50;;
10248;SDS011;5169;50.560;9.714;2023-02-28T03:06:55;2.13;;;1.70;;
10248;SDS011;5169;50.560;9.714;2023-02-28T03:09:25;3.10;;;1.57;;
10248;SDS011;5169;50.560;9.714;2023-02-28T03:11:52;3.37;;;1.77;;
10248;SDS011;5169;50.560;9.714;2023-02-28T03:20:17;1.50;;;1.40;;
10248;SDS011;5169;50.560;9.714;2023-02-28T03:25:55;2.27;;;1.57;;
10248;SDS011;5169;50.560;9.714;2023-02-28T03:28:39;1.83;;;1.70;;
10248;SDS011;5169;50.560;9.714;2023-02-28T03:31:17;1.90;;;1.70;;
10248;SDS011;5169;50.560;9.714;2023-02-28T03:34:37;2.27;;;1.60;;
10248;SDS011;5169;50.560;9.714;2023-02-28T03:36:52;1.63;;;1.53;;
10248;SDS011;5169;50.560;9.714;2023-02-28T03:39:31;2.00;;;1.80;;
10248;SDS011;5169;50.560;9.714;2023-02-28T03:42:26;2.50;;;1.63;;
10248;SDS011;5169;50.560;9.714;2023-02-28T03:47:46;2.73;;;1.40;;
10248;SDS011;5169;50.560;9.714;2023-02-28T03:53:08;2.00;;;1.60;;
10248;SDS011;5169;50.560;9.714;2023-02-28T03:55:45;3.53;;;1.87;;
10248;SDS011;5169;50.560;9.714;2023-02-28T03:58:28;2.90;;;1.80;;
10248;SDS011;5169;50.560;9.714;2023-02-28T04:01:13;2.07;;;1.77;;
10248;SDS011;5169;50.560;9.714;2023-02-28T04:03:42;3.23;;;1.80;;
10248;SDS011;5169;50.560;9.714;2023-02-28T04:06:15;1.90;;;1.70;;
10248;SDS011;5169;50.560;9.714;2023-02-28T04:09:04;2.23;;;1.93;;
10248;SDS011;5169;50.560;9.714;2023-02-28T04:11:38;2.60;;;2.10;;
10248;SDS011;5169;50.560;9.714;2023-02-28T04:14:08;2.23;;;1.70;;
10248;SDS011;5169;50.560;9.714;2023-02-28T04:16:43;3.00;;;1.90;;
10248;SDS011;5169;50.560;9.714;2023-02-28T04:19:15;2.27;;;2.07;;
10248;SDS011;5169;50.560;9.714;2023-02-28T04:21:42;3.43;;;2.03;;
10248;SDS011;5169;50.560;9.714;2023-02-28T04:24:17;3.00;;;2.20;;
10248;SDS011;5169;50.560;9.714;2023-02-28T04:26:45;4.53;;;1.90;;
10248;SDS011;5169;50.560;9.714;2023-02-28T04:29:19;1.90;;;1.77;;
10248;SDS011;5169;50.560;9.714;2023-02-28T04:31:52;2.47;;;1.80;;
10248;SDS011;5169;50.560;9.714;2023-02-28T04:34:26;2.93;;;1.80;;
10248;SDS011;5169;50.560;9.714;2023-02-28T04:36:52;2.03;;;1.83;;
10248;SDS011;5169;50.560;9.714;2023-02-28T04:39:20;3.00;;;2.30;;
10248;SDS011;5169;50.560;9.714;2023-02-28T04:41:54;2.60;;;2.10;;
10248;SDS011;5169;50.560;9.714;2023-02-28T04:44:20;2.37;;;2.07;;
10248;SDS011;5169;50.560;9.714;2023-02-28T04:46:55;2.50;;;2.20;;
10248;SDS011;5169;50.560;9.714;2023-02-28T04:49:25;3.23;;;2.30;;
10248;SDS011;5169;50.560;9.714;2023-02-28T04:51:50;2.40;;;2.07;;
10248;SDS011;5169;50.560;9.714;2023-02-28T04:54:18;3.43;;;2.40;;
10248;SDS011;5169;50.560;9.714;2023-02-28T04:56:44;2.50;;;2.30;;
10248;SDS011;5169;50.560;9.714;2023-02-28T04:59:10;3.53;;;2.30;;
10248;SDS011;5169;50.560;9.714;2023-02-28T05:01:38;3.03;;;2.57;;
10248;SDS011;5169;50.560;9.714;2023-02-28T05:04:04;4.23;;;2.43;;
10248;SDS011;5169;50.560;9.714;2023-02-28T05:06:32;2.90;;;2.60;;
10248;SDS011;5169;50.560;9.714;2023-02-28T05:09:02;3.60;;;2.80;;
10248;SDS011;5169;50.560;9.714;2023-02-28T05:11:31;2.90;;;2.60;;
10248;SDS011;5169;50.560;9.714;2023-02-28T05:14:05;3.27;;;2.70;;
10248;SDS011;5169;50.560;9.714;2023-02-28T05:16:38;3.70;;;2.77;;
10248;SDS011;5169;50.560;9.714;2023-02-28T05:19:03;3.70;;;3.17;;
10248;SDS011;5169;50.560;9.714;2023-02-28T05:21:31;4.93;;;3.40;;
10248;SDS011;5169;50.560;9.714;2023-02-28T05:23:58;3.63;;;2.80;;
10248;SDS011;5169;50.560;9.714;2023-02-28T05:26:40;2.83;;;2.57;;
10248;SDS011;5169;50.560;9.714;2023-02-28T05:29:07;2.57;;;2.20;;
10248;SDS011;5169;50.560;9.714;2023-02-28T05:31:41;3.03;;;2.37;;
10248;SDS011;5169;50.560;9.714;2023-02-28T05:34:09;3.10;;;2.70;;
10248;SDS011;5169;50.560;9.714;2023-02-28T05:36:38;4.17;;;3.00;;
10248;SDS011;5169;50.560;9.714;2023-02-28T05:39:05;3.27;;;2.57;;
10248;SDS011;5169;50.560;9.714;2023-02-28T05:41:32;4.23;;;2.90;;
10248;SDS011;5169;50.560;9.714;2023-02-28T05:43:58;4.03;;;3.30;;
10248;SDS011;5169;50.560;9.714;2023-02-28T05:46:27;4.17;;;3.10;;
10248;SDS011;5169;50.560;9.714;2023-02-28T05:48:55;4.47;;;3.33;;
10248;SDS011;5169;50.560;9.714;2023-02-28T05:51:22;4.13;;;2.87;;
10248;SDS011;5169;50.560;9.714;2023-02-28T05:54:06;3.60;;;2.57;;
10248;SDS011;5169;50.560;9.714;2023-02-28T05:56:32;4.10;;;3.03;;
10248;SDS011;5169;50.560;9.714;2023-02-28T05:59:03;4.73;;;3.30;;
10248;SDS011;5169;50.560;9.714;2023-02-28T06:01:37;3.90;;;2.90;;
10248;SDS011;5169;50.560;9.714;2023-02-28T06:04:16;3.30;;;3.00;;
10248;SDS011;5169;50.560;9.714;2023-02-28T06:06:46;4.13;;;2.80;;
10248;SDS011;5169;50.560;9.714;2023-02-28T06:09:19;3.13;;;2.60;;
10248;SDS011;5169;50.560;9.714;2023-02-28T06:11:47;4.03;;;2.90;;
10248;SDS011;5169;50.560;9.714;2023-02-28T06:14:19;3.53;;;3.23;;
10248;SDS011;5169;50.560;9.714;2023-02-28T06:16:45;5.57;;;3.40;;
10248;SDS011;5169;50.560;9.714;2023-02-28T06:19:18;4.00;;;3.50;;
10248;SDS011;5169;50.560;9.714;2023-02-28T06:21:44;3.97;;;3.40;;
10248;SDS011;5169;50.560;9.714;2023-02-28T06:24:20;4.63;;;3.77;;
10248;SDS011;5169;50.560;9.714;2023-02-28T06:26:47;4.10;;;3.60;;
10248;SDS011;5169;50.560;9.714;2023-02-28T06:29:15;4.33;;;3.50;;
10248;SDS011;5169;50.560;9.714;2023-02-28T06:31:46;5.07;;;3.73;;
10248;SDS011;5169;50.560;9.714;2023-02-28T06:34:16;5.17;;;3.90;;
10248;SDS011;5169;50.560;9.714;2023-02-28T06:36:42;4.57;;;3.30;;
10248;SDS011;5169;50.560;9.714;2023-02-28T06:39:08;4.87;;;3.87;;
10248;SDS011;5169;50.560;9.714;2023-02-28T06:41:34;5.10;;;3.63;;
10248;SDS011;5169;50.560;9.714;2023-02-28T06:44:15;4.70;;;4.13;;
10248;SDS011;5169;50.560;9.714;2023-02-28T06:46:45;4.80;;;3.87;;
10248;SDS011;5169;50.560;9.714;2023-02-28T06:49:11;6.53;;;4.53;;
10248;SDS011;5169;50.560;9.714;2023-02-28T06:51:53;5.27;;;3.83;;
10248;SDS011;5169;50.560;9.714;2023-02-28T06:54:19;8.57;;;5.70;;
10248;SDS011;5169;50.560;9.714;2023-02-28T06:56:45;12.70;;;7.70;;
10248;SDS011;5169;50.560;9.714;2023-02-28T06:59:18;8.33;;;5.03;;
10248;SDS011;5169;50.560;9.714;2023-02-28T07:01:43;14.67;;;8.53;;
10248;SDS011;5169;50.560;9.714;2023-02-28T07:04:09;17.07;;;9.60;;
10248;SDS011;5169;50.560;9.714;2023-02-28T07:06:35;17.30;;;9.77;;
10248;SDS011;5169;50.560;9.714;2023-02-28T07:09:04;10.33;;;6.83;;
10248;SDS011;5169;50.560;9.714;2023-02-28T07:11:30;10.43;;;6.83;;
10248;SDS011;5169;50.560;9.714;2023-02-28T07:13:55;7.43;;;5.50;;
10248;SDS011;5169;50.560;9.714;2023-02-28T07:16:22;10.13;;;6.60;;
10248;SDS011;5169;50.560;9.714;2023-02-28T07:18:55;7.07;;;4.50;;
10248;SDS011;5169;50.560;9.714;2023-02-28T07:21:21;3.93;;;3.20;;
10248;SDS011;5169;50.560;9.714;2023-02-28T07:23:47;6.77;;;3.40;;
10248;SDS011;5169;50.560;9.714;2023-02-28T07:26:21;4.70;;;3.50;;
10248;SDS011;5169;50.560;9.714;2023-02-28T07:28:47;4.93;;;3.93;;
10248;SDS011;5169;50.560;9.714;2023-02-28T07:31:19;5.43;;;3.77;;
10248;SDS011;5169;50.560;9.714;2023-02-28T07:33:45;3.77;;;3.20;;
10248;SDS011;5169;50.560;9.714;2023-02-28T07:36:12;4.47;;;3.67;;
10248;SDS011;5169;50.560;9.714;2023-02-28T07:38:43;3.23;;;2.60;;
10248;SDS011;5169;50.560;9.714;2023-02-28T07:41:16;4.37;;;3.43;;
10248;SDS011;5169;50.560;9.714;2023-02-28T07:43:43;4.50;;;3.83;;
10248;SDS011;5169;50.560;9.714;2023-02-28T07:46:10;4.80;;;3.20;;
10248;SDS011;5169;50.560;9.714;2023-02-28T07:48:46;3.53;;;3.20;;
10248;SDS011;5169;50.560;9.714;2023-02-28T07:51:20;4.67;;;3.67;;
10248;SDS011;5169;50.560;9.714;2023-02-28T07:53:47;5.10;;;3.70;;
10248;SDS011;5169;50.560;9.714;2023-02-28T07:56:17;3.50;;;3.03;;
10248;SDS011;5169;50.560;9.714;2023-02-28T07:58:45;3.73;;;3.33;;
10248;SDS011;5169;50.560;9.714;2023-02-28T08:01:17;4.97;;;3.70;;
10248;SDS011;5169;50.560;9.714;2023-02-28T08:03:44;5.00;;;3.80;;
10248;SDS011;5169;50.560;9.714;2023-02-28T08:06:15;4.77;;;3.83;;
10248;SDS011;5169;50.560;9.714;2023-02-28T08:08:43;5.53;;;3.50;;
10248;SDS011;5169;50.560;9.714;2023-02-28T08:11:11;3.73;;;3.23;;
10248;SDS011;5169;50.560;9.714;2023-02-28T08:13:40;5.47;;;3.60;;
10248;SDS011;5169;50.560;9.714;2023-02-28T08:16:10;4.23;;;2.67;;
10248;SDS011;5169;50.560;9.714;2023-02-28T08:18:47;3.40;;;2.77;;
10248;SDS011;5169;50.560;9.714;2023-02-28T08:21:17;2.90;;;2.30;;
10248;SDS011;5169;50.560;9.714;2023-02-28T08:23:43;2.87;;;2.57;;
10248;SDS011;5169;50.560;9.714;2023-02-28T08:26:10;6.13;;;3.00;;
10248;SDS011;5169;50.560;9.714;2023-02-28T08:28:39;4.33;;;2.80;;
10248;SDS011;5169;50.560;9.714;2023-02-28T08:31:09;3.87;;;2.97;;
10248;SDS011;5169;50.560;9.714;2023-02-28T08:33:42;5.00;;;3.10;;
10248;SDS011;5169;50.560;9.714;2023-02-28T08:36:09;3.37;;;2.80;;
10248;SDS011;5169;50.560;9.714;2023-02-28T08:38:40;2.23;;;1.90;;
10248;SDS011;5169;50.560;9.714;2023-02-28T08:41:09;4.17;;;2.60;;
10248;SDS011;5169;50.560;9.714;2023-02-28T08:43:40;6.50;;;2.90;;
10248;SDS011;5169;50.560;9.714;2023-02-28T08:46:06;3.27;;;2.47;;
10248;SDS011;5169;50.560;9.714;2023-02-28T08:48:33;2.93;;;2.63;;
10248;SDS011;5169;50.560;9.714;2023-02-28T08:51:01;3.23;;;2.93;;
10248;SDS011;5169;50.560;9.714;2023-02-28T08:53:30;3.20;;;2.53;;
10248;SDS011;5169;50.560;9.714;2023-02-28T08:55:59;2.87;;;2.57;;
10248;SDS011;5169;50.560;9.714;2023-02-28T08:58:46;3.77;;;3.03;;
10248;SDS011;5169;50.560;9.714;2023-02-28T09:01:17;4.40;;;2.67;;
10248;SDS011;5169;50.560;9.714;2023-02-28T09:03:48;3.23;;;2.40;;
10248;SDS011;5169;50.560;9.714;2023-02-28T09:06:19;3.00;;;2.70;;
10248;SDS011;5169;50.560;9.714;2023-02-28T09:08:46;2.37;;;2.10;;
10248;SDS011;5169;50.560;9.714;2023-02-28T09:11:11;4.27;;;2.70;;
10248;SDS011;5169;50.560;9.714;2023-02-28T09:13:40;2.83;;;2.60;;
10248;SDS011;5169;50.560;9.714;2023-02-28T09:16:08;5.00;;;2.97;;
10248;SDS011;5169;50.560;9.714;2023-02-28T09:18:37;2.67;;;2.43;;
10248;SDS011;5169;50.560;9.714;2023-02-28T09:21:10;2.93;;;2.23;;
10248;SDS011;5169;50.560;9.714;2023-02-28T09:23:46;3.47;;;2.70;;
10248;SDS011;5169;50.560;9.714;2023-02-28T09:26:20;3.50;;;2.40;;
10248;SDS011;5169;50.560;9.714;2023-02-28T09:28:54;3.73;;;2.63;;
10248;SDS011;5169;50.560;9.714;2023-02-28T09:31:24;3.77;;;2.60;;
10248;SDS011;5169;50.560;9.714;2023-02-28T09:33:54;2.37;;;2.17;;
10248;SDS011;5169;50.560;9.714;2023-02-28T09:36:21;3.00;;;2.10;;
10248;SDS011;5169;50.560;9.714;2023-02-28T09:38:54;2.37;;;2.10;;
10248;SDS011;5169;50.560;9.714;2023-02-28T09:41:21;3.77;;;3.03;;
10248;SDS011;5169;50.560;9.714;2023-02-28T09:43:55;2.43;;;2.23;;
10248;SDS011;5169;50.560;9.714;2023-02-28T09:46:35;2.97;;;2.17;;
10248;SDS011;5169;50.560;9.714;2023-02-28T09:49:11;3.23;;;2.70;;
10248;SDS011;5169;50.560;9.714;2023-02-28T09:54:13;3.47;;;2.60;;
10248;SDS011;5169;50.560;9.714;2023-02-28T09:56:53;2.77;;;2.33;;
10248;SDS011;5169;50.560;9.714;2023-02-28T10:02:10;2.50;;;2.20;;
10248;SDS011;5169;50.560;9.714;2023-02-28T10:05:33;4.53;;;3.17;;
10248;SDS011;5169;50.560;9.714;2023-02-28T10:08:13;3.30;;;2.67;;
10248;SDS011;5169;50.560;9.714;2023-02-28T10:10:44;3.97;;;3.23;;
10248;SDS011;5169;50.560;9.714;2023-02-28T10:15:46;4.03;;;3.30;;
10248;SDS011;5169;50.560;9.714;2023-02-28T10:18:20;5.93;;;4.20;;
10248;SDS011;5169;50.560;9.714;2023-02-28T10:20:52;3.20;;;2.73;;
10248;SDS011;5169;50.560;9.714;2023-02-28T10:23:25;3.23;;;2.40;;
10248;SDS011;5169;50.560;9.714;2023-02-28T10:26:19;3.87;;;2.60;;
10248;SDS011;5169;50.560;9.714;2023-02-28T10:28:48;3.37;;;2.23;;
10248;SDS011;5169;50.560;9.714;2023-02-28T10:31:19;3.47;;;2.63;;
10248;SDS011;5169;50.560;9.714;2023-02-28T10:33:47;3.63;;;3.00;;
10248;SDS011;5169;50.560;9.714;2023-02-28T10:36:20;2.73;;;2.40;;
10248;SDS011;5169;50.560;9.714;2023-02-28T10:38:48;2.80;;;2.43;;
10248;SDS011;5169;50.560;9.714;2023-02-28T10:41:30;3.80;;;2.80;;
10248;SDS011;5169;50.560;9.714;2023-02-28T10:44:20;2.37;;;1.90;;
10248;SDS011;5169;50.560;9.714;2023-02-28T10:46:47;3.37;;;2.50;;
10248;SDS011;5169;50.560;9.714;2023-02-28T10:49:21;4.10;;;2.50;;
10248;SDS011;5169;50.560;9.714;2023-02-28T10:51:57;3.50;;;2.70;;
10248;SDS011;5169;50.560;9.714;2023-02-28T10:54:33;3.20;;;2.63;;
10248;SDS011;5169;50.560;9.714;2023-02-28T10:57:20;3.67;;;2.57;;
10248;SDS011;5169;50.560;9.714;2023-02-28T10:59:50;2.57;;;2.23;;
10248;SDS011;5169;50.560;9.714;2023-02-28T11:02:42;3.03;;;2.37;;
10248;SDS011;5169;50.560;9.714;2023-02-28T11:05:31;4.57;;;2.13;;
10248;SDS011;5169;50.560;9.714;2023-02-28T11:08:04;4.53;;;2.40;;
10248;SDS011;5169;50.560;9.714;2023-02-28T11:10:31;4.17;;;2.80;;
10248;SDS011;5169;50.560;9.714;2023-02-28T11:13:01;4.13;;;3.30;;
10248;SDS011;5169;50.560;9.714;2023-02-28T11:15:31;5.10;;;3.40;;
10248;SDS011;5169;50.560;9.714;2023-02-28T11:18:18;3.33;;;2.87;;
10248;SDS011;5169;50.560;9.714;2023-02-28T11:21:00;2.93;;;2.63;;
10248;SDS011;5169;50.560;9.714;2023-02-28T11:23:32;3.07;;;2.53;;
10248;SDS011;5169;50.560;9.714;2023-02-28T11:26:01;4.27;;;2.57;;
10248;SDS011;5169;50.560;9.714;2023-02-28T11:28:37;3.67;;;2.90;;
10248;SDS011;5169;50.560;9.714;2023-02-28T11:33:47;4.40;;;3.47;;
10248;SDS011;5169;50.560;9.714;2023-02-28T11:36:22;2.50;;;2.30;;
10248;SDS011;5169;50.560;9.714;2023-02-28T11:38:50;4.43;;;2.87;;
10248;SDS011;5169;50.560;9.714;2023-02-28T11:47:10;5.03;;;3.40;;
10248;SDS011;5169;50.560;9.714;2023-02-28T11:55:54;5.07;;;3.27;;
10248;SDS011;5169;50.560;9.714;2023-02-28T11:58:26;3.33;;;2.50;;
10248;SDS011;5169;50.560;9.714;2023-02-28T12:11:59;3.40;;;2.67;;
10248;SDS011;5169;50.560;9.714;2023-02-28T12:15:23;5.20;;;3.53;;
10248;SDS011;5169;50.560;9.714;2023-02-28T12:18:04;4.50;;;3.47;;
10248;SDS011;5169;50.560;9.714;2023-02-28T12:26:44;4.10;;;3.30;;
10248;SDS011;5169;50.560;9.714;2023-02-28T12:29:24;4.03;;;3.20;;
10248;SDS011;5169;50.560;9.714;2023-02-28T12:31:58;5.47;;;3.30;;
10248;SDS011;5169;50.560;9.714;2023-02-28T12:34:49;5.37;;;4.00;;
10248;SDS011;5169;50.560;9.714;2023-02-28T12:37:29;4.27;;;3.57;;
10248;SDS011;5169;50.560;9.714;2023-02-28T12:40:34;4.33;;;3.90;;
10248;SDS011;5169;50.560;9.714;2023-02-28T12:43:09;4.37;;;3.60;;
10248;SDS011;5169;50.560;9.714;2023-02-28T12:45:48;4.03;;;3.40;;
10248;SDS011;5169;50.560;9.714;2023-02-28T12:48:31;4.57;;;4.00;;
10248;SDS011;5169;50.560;9.714;2023-02-28T12:51:20;4.73;;;3.53;;
10248;SDS011;5169;50.560;9.714;2023-02-28T12:53:59;3.63;;;3.30;;
10248;SDS011;5169;50.560;9.714;2023-02-28T13:10:46;4.90;;;3.03;;
10248;SDS011;5169;50.560;9.714;2023-02-28T13:13:20;5.10;;;3.87;;
10248;SDS011;5169;50.560;9.714;2023-02-28T13:18:40;3.23;;;2.93;;
10248;SDS011;5169;50.560;9.714;2023-02-28T13:21:10;4.00;;;3.20;;
10248;SDS011;5169;50.560;9.714;2023-02-28T13:23:58;4.40;;;3.67;;
10248;SDS011;5169;50.560;9.714;2023-02-28T13:29:40;4.60;;;3.47;;
10248;SDS011;5169;50.560;9.714;2023-02-28T13:34:35;3.90;;;3.47;;
10248;SDS011;5169;50.560;9.714;2023-02-28T13:39:46;6.47;;;3.50;;
10248;SDS011;5169;50.560;9.714;2023-02-28T13:42:33;4.73;;;3.70;;
10248;SDS011;5169;50.560;9.714;2023-02-28T13:47:43;3.67;;;3.30;;
10248;SDS011;5169;50.560;9.714;2023-02-28T13:50:32;4.40;;;3.50;;
10248;SDS011;5169;50.560;9.714;2023-02-28T14:07:36;4.77;;;3.47;;
10248;SDS011;5169;50.560;9.714;2023-02-28T14:17:59;3.93;;;3.10;;
10248;SDS011;5169;50.560;9.714;2023-02-28T14:20:45;5.50;;;3.90;;
10248;SDS011;5169;50.560;9.714;2023-02-28T14:31:58;5.43;;;3.80;;
10248;SDS011;5169;50.560;9.714;2023-02-28T14:34:48;5.10;;;3.00;;
10248;SDS011;5169;50.560;9.714;2023-02-28T14:37:37;4.70;;;2.80;;
10248;SDS011;5169;50.560;9.714;2023-02-28T14:40:17;5.70;;;3.60;;
10248;SDS011;5169;50.560;9.714;2023-02-28T14:42:54;5.10;;;3.80;;
10248;SDS011;5169;50.560;9.714;2023-02-28T14:45:32;6.73;;;4.20;;
10248;SDS011;5169;50.560;9.714;2023-02-28T14:48:00;4.47;;;3.50;;
10248;SDS011;5169;50.560;9.714;2023-02-28T14:50:34;5.60;;;3.90;;
10248;SDS011;5169;50.560;9.714;2023-02-28T14:53:15;3.17;;;2.53;;
10248;SDS011;5169;50.560;9.714;2023-02-28T14:55:44;5.33;;;3.63;;
10248;SDS011;5169;50.560;9.714;2023-02-28T15:01:23;4.20;;;3.00;;
10248;SDS011;5169;50.560;9.714;2023-02-28T15:03:57;4.37;;;3.60;;
10248;SDS011;5169;50.560;9.714;2023-02-28T15:06:31;5.07;;;3.60;;
10248;SDS011;5169;50.560;9.714;2023-02-28T15:09:08;5.33;;;4.27;;
10248;SDS011;5169;50.560;9.714;2023-02-28T15:11:47;4.87;;;3.60;;
10248;SDS011;5169;50.560;9.714;2023-02-28T15:14:23;4.00;;;3.40;;
10248;SDS011;5169;50.560;9.714;2023-02-28T15:16:57;4.80;;;3.70;;
10248;SDS011;5169;50.560;9.714;2023-02-28T15:19:31;5.60;;;4.00;;
10248;SDS011;5169;50.560;9.714;2023-02-28T15:22:02;4.23;;;3.67;;
10248;SDS011;5169;50.560;9.714;2023-02-28T15:24:48;5.53;;;3.90;;
10248;SDS011;5169;50.560;9.714;2023-02-28T15:27:30;5.60;;;3.40;;
10248;SDS011;5169;50.560;9.714;2023-02-28T15:29:59;5.83;;;3.87;;
10248;SDS011;5169;50.560;9.714;2023-02-28T15:32:34;7.63;;;3.60;;
10248;SDS011;5169;50.560;9.714;2023-02-28T15:35:19;5.33;;;3.90;;
10248;SDS011;5169;50.560;9.714;2023-02-28T15:38:03;6.00;;;4.20;;
10248;SDS011;5169;50.560;9.714;2023-02-28T15:40:51;5.40;;;3.83;;
10248;SDS011;5169;50.560;9.714;2023-02-28T15:43:31;7.20;;;4.83;;
10248;SDS011;5169;50.560;9.714;2023-02-28T15:48:56;4.43;;;3.87;;
10248;SDS011;5169;50.560;9.714;2023-02-28T15:54:04;6.40;;;4.00;;
10248;SDS011;5169;50.560;9.714;2023-02-28T15:56:43;6.13;;;4.20;;
10248;SDS011;5169;50.560;9.714;2023-02-28T15:59:13;4.57;;;3.60;;
10248;SDS011;5169;50.560;9.714;2023-02-28T16:07:30;7.47;;;4.20;;
10248;SDS011;5169;50.560;9.714;2023-02-28T16:09:59;6.30;;;4.10;;
10248;SDS011;5169;50.560;9.714;2023-02-28T16:12:26;5.90;;;4.23;;
10248;SDS011;5169;50.560;9.714;2023-02-28T16:15:05;5.93;;;4.70;;
10248;SDS011;5169;50.560;9.714;2023-02-28T16:17:49;6.10;;;4.63;;
10248;SDS011;5169;50.560;9.714;2023-02-28T16:20:23;7.37;;;4.60;;
10248;SDS011;5169;50.560;9.714;2023-02-28T16:22:49;5.17;;;4.50;;
10248;SDS011;5169;50.560;9.714;2023-02-28T16:25:22;5.67;;;4.47;;
10248;SDS011;5169;50.560;9.714;2023-02-28T16:27:52;5.63;;;4.43;;
10248;SDS011;5169;50.560;9.714;2023-02-28T16:30:28;8.20;;;4.53;;
10248;SDS011;5169;50.560;9.714;2023-02-28T16:32:56;11.20;;;4.60;;
10248;SDS011;5169;50.560;9.714;2023-02-28T16:35:22;5.80;;;4.50;;
10248;SDS011;5169;50.560;9.714;2023-02-28T16:37:51;6.23;;;4.60;;
10248;SDS011;5169;50.560;9.714;2023-02-28T16:40:23;6.30;;;4.97;;
10248;SDS011;5169;50.560;9.714;2023-02-28T16:42:51;6.37;;;4.63;;
10248;SDS011;5169;50.560;9.714;2023-02-28T16:45:28;6.03;;;4.57;;
10248;SDS011;5169;50.560;9.714;2023-02-28T16:47:54;7.10;;;5.37;;
10248;SDS011;5169;50.560;9.714;2023-02-28T16:50:21;7.40;;;5.20;;
10248;SDS011;5169;50.560;9.714;2023-02-28T16:52:57;5.67;;;4.97;;
10248;SDS011;5169;50.560;9.714;2023-02-28T16:55:23;6.13;;;5.07;;
10248;SDS011;5169;50.560;9.714;2023-02-28T16:57:56;7.47;;;5.27;;
10248;SDS011;5169;50.560;9.714;2023-02-28T17:00:24;5.33;;;4.77;;
10248;SDS011;5169;50.560;9.714;2023-02-28T17:02:54;6.47;;;4.93;;
10248;SDS011;5169;50.560;9.714;2023-02-28T17:05:21;8.27;;;5.30;;
10248;SDS011;5169;50.560;9.714;2023-02-28T17:07:51;7.93;;;4.70;;
10248;SDS011;5169;50.560;9.714;2023-02-28T17:10:18;8.33;;;5.30;;
10248;SDS011;5169;50.560;9.714;2023-02-28T17:12:45;5.20;;;4.70;;
10248;SDS011;5169;50.560;9.714;2023-02-28T17:15:11;6.43;;;5.00;;
10248;SDS011;5169;50.560;9.714;2023-02-28T17:17:44;8.50;;;5.13;;
10248;SDS011;5169;50.560;9.714;2023-02-28T17:20:12;7.13;;;5.23;;
10248;SDS011;5169;50.560;9.714;2023-02-28T17:22:42;6.53;;;4.90;;
10248;SDS011;5169;50.560;9.714;2023-02-28T17:25:11;6.47;;;5.17;;
10248;SDS011;5169;50.560;9.714;2023-02-28T17:27:37;7.67;;;5.40;;
10248;SDS011;5169;50.560;9.714;2023-02-28T17:30:38;7.27;;;5.10;;
10248;SDS011;5169;50.560;9.714;2023-02-28T17:33:00;6.37;;;5.07;;
10248;SDS011;5169;50.560;9.714;2023-02-28T17:35:26;8.00;;;4.63;;
10248;SDS011;5169;50.560;9.714;2023-02-28T17:37:52;8.87;;;5.80;;
10248;SDS011;5169;50.560;9.714;2023-02-28T17:40:21;6.03;;;5.27;;
10248;SDS011;5169;50.560;9.714;2023-02-28T17:42:48;5.83;;;5.20;;
10248;SDS011;5169;50.560;9.714;2023-02-28T17:45:17;8.80;;;5.97;;
10248;SDS011;5169;50.560;9.714;2023-02-28T17:47:47;6.57;;;5.60;;
10248;SDS011;5169;50.560;9.714;2023-02-28T17:50:17;7.17;;;5.30;;
10248;SDS011;5169;50.560;9.714;2023-02-28T17:52:50;6.80;;;4.93;;
10248;SDS011;5169;50.560;9.714;2023-02-28T17:55:16;6.57;;;5.30;;
10248;SDS011;5169;50.560;9.714;2023-02-28T17:57:44;6.67;;;5.60;;
10248;SDS011;5169;50.560;9.714;2023-02-28T18:00:14;7.60;;;6.13;;
10248;SDS011;5169;50.560;9.714;2023-02-28T18:02:42;7.13;;;5.80;;
10248;SDS011;5169;50.560;9.714;2023-02-28T18:05:11;7.03;;;5.37;;
10248;SDS011;5169;50.560;9.714;2023-02-28T18:07:37;7.53;;;5.80;;
10248;SDS011;5169;50.560;9.714;2023-02-28T18:10:03;8.50;;;5.87;;
10248;SDS011;5169;50.560;9.714;2023-02-28T18:12:33;10.83;;;6.43;;